sensor_id;sensor_type;location;lat;lon;timestamp;P1;durP1;ratioP1;P2;durP2;ratioP2
74510;SDS011;62991;50.040;18.400;2023-05-31T00:01:33;9.27;;;2.90;;
74510;SDS011;62991;50.040;18.400;2023-05-31T00:04:34;10.55;;;3.30;;
74510;SDS011;62991;50.040;18.400;2023-05-31T00:07:34;9.27;;;3.03;;
74510;SDS011;62991;50.040;18.400;2023-05-31T00:10:35;6.80;;;2.83;;
74510;SDS011;62991;50.040;18.400;2023-05-31T00:13:36;6.32;;;2.50;;
74510;SDS011;62991;50.040;18.400;2023-05-31T00:16:38;6.20;;;2.70;;
74510;SDS011;62991;50.040;18.400;2023-05-31T00:19:39;7.03;;;2.67;;
74510;SDS011;62991;50.040;18.400;2023-05-31T00:22:40;9.80;;;3.10;;
74510;SDS011;62991;50.040;18.400;2023-05-31T00:25:40;5.97;;;2.55;;
74510;SDS011;62991;50.040;18.400;2023-05-31T00:28:41;5.53;;;2.58;;
74510;SDS011;62991;50.040;18.400;2023-05-31T00:31:41;6.63;;;2.70;;
74510;SDS011;62991;50.040;18.400;2023-05-31T00:34:42;10.13;;;3.45;;
74510;SDS011;62991;50.040;18.400;2023-05-31T00:37:43;7.20;;;3.38;;
74510;SDS011;62991;50.040;18.400;2023-05-31T00:40:44;9.98;;;3.42;;
74510;SDS011;62991;50.040;18.400;2023-05-31T00:43:45;12.73;;;3.78;;
74510;SDS011;62991;50.040;18.400;2023-05-31T00:46:46;10.57;;;4.22;;
74510;SDS011;62991;50.040;18.400;2023-05-31T00:49:47;7.07;;;3.22;;
74510;SDS011;62991;50.040;18.400;2023-05-31T00:52:48;7.90;;;3.15;;
74510;SDS011;62991;50.040;18.400;2023-05-31T00:55:51;6.80;;;3.35;;
74510;SDS011;62991;50.040;18.400;2023-05-31T00:58:53;10.45;;;4.07;;
74510;SDS011;62991;50.040;18.400;2023-05-31T01:01:57;7.72;;;3.47;;
74510;SDS011;62991;50.040;18.400;2023-05-31T01:04:58;8.90;;;3.75;;
74510;SDS011;62991;50.040;18.400;2023-05-31T01:07:58;8.82;;;3.85;;
74510;SDS011;62991;50.040;18.400;2023-05-31T01:11:01;16.00;;;3.38;;
74510;SDS011;62991;50.040;18.400;2023-05-31T01:20:16;8.65;;;3.17;;
74510;SDS011;62991;50.040;18.400;2023-05-31T01:26:58;8.13;;;3.20;;
74510;SDS011;62991;50.040;18.400;2023-05-31T01:30:02;7.32;;;3.30;;
74510;SDS011;62991;50.040;18.400;2023-05-31T01:33:08;11.18;;;3.33;;
74510;SDS011;62991;50.040;18.400;2023-05-31T01:36:12;7.93;;;3.55;;
74510;SDS011;62991;50.040;18.400;2023-05-31T01:39:13;8.07;;;2.85;;
74510;SDS011;62991;50.040;18.400;2023-05-31T01:42:14;7.40;;;2.65;;
74510;SDS011;62991;50.040;18.400;2023-05-31T01:45:17;5.40;;;3.13;;
74510;SDS011;62991;50.040;18.400;2023-05-31T01:48:18;11.63;;;3.13;;
74510;SDS011;62991;50.040;18.400;2023-05-31T01:51:19;10.73;;;3.22;;
74510;SDS011;62991;50.040;18.400;2023-05-31T01:54:21;8.77;;;3.42;;
74510;SDS011;62991;50.040;18.400;2023-05-31T01:57:22;11.98;;;3.38;;
74510;SDS011;62991;50.040;18.400;2023-05-31T02:00:24;7.35;;;3.03;;
74510;SDS011;62991;50.040;18.400;2023-05-31T02:03:25;5.72;;;2.70;;
74510;SDS011;62991;50.040;18.400;2023-05-31T02:06:27;9.25;;;3.47;;
74510;SDS011;62991;50.040;18.400;2023-05-31T02:09:27;7.50;;;2.95;;
74510;SDS011;62991;50.040;18.400;2023-05-31T02:12:28;11.45;;;2.92;;
74510;SDS011;62991;50.040;18.400;2023-05-31T02:15:29;8.35;;;3.08;;
74510;SDS011;62991;50.040;18.400;2023-05-31T02:18:29;17.58;;;3.65;;
74510;SDS011;62991;50.040;18.400;2023-05-31T02:21:33;8.63;;;3.65;;
74510;SDS011;62991;50.040;18.400;2023-05-31T02:24:37;8.60;;;3.00;;
74510;SDS011;62991;50.040;18.400;2023-05-31T02:27:38;8.00;;;3.30;;
74510;SDS011;62991;50.040;18.400;2023-05-31T02:30:39;8.48;;;3.10;;
74510;SDS011;62991;50.040;18.400;2023-05-31T02:33:41;9.43;;;3.00;;
74510;SDS011;62991;50.040;18.400;2023-05-31T02:36:42;11.63;;;3.58;;
74510;SDS011;62991;50.040;18.400;2023-05-31T02:39:42;14.57;;;3.50;;
74510;SDS011;62991;50.040;18.400;2023-05-31T02:42:43;8.93;;;3.55;;
74510;SDS011;62991;50.040;18.400;2023-05-31T02:45:44;7.32;;;3.00;;
74510;SDS011;62991;50.040;18.400;2023-05-31T02:48:44;5.95;;;2.88;;
74510;SDS011;62991;50.040;18.400;2023-05-31T02:51:45;9.82;;;3.63;;
74510;SDS011;62991;50.040;18.400;2023-05-31T02:54:46;10.60;;;3.15;;
74510;SDS011;62991;50.040;18.400;2023-05-31T02:57:47;11.48;;;3.83;;
74510;SDS011;62991;50.040;18.400;2023-05-31T03:00:47;10.27;;;3.58;;
74510;SDS011;62991;50.040;18.400;2023-05-31T03:03:48;10.68;;;4.88;;
74510;SDS011;62991;50.040;18.400;2023-05-31T03:06:48;8.00;;;3.78;;
74510;SDS011;62991;50.040;18.400;2023-05-31T03:09:49;12.93;;;5.13;;
74510;SDS011;62991;50.040;18.400;2023-05-31T03:12:50;15.32;;;5.28;;
74510;SDS011;62991;50.040;18.400;2023-05-31T03:15:51;12.85;;;4.68;;
74510;SDS011;62991;50.040;18.400;2023-05-31T03:18:51;14.35;;;4.82;;
74510;SDS011;62991;50.040;18.400;2023-05-31T03:21:53;11.65;;;4.45;;
74510;SDS011;62991;50.040;18.400;2023-05-31T03:24:53;15.52;;;4.55;;
74510;SDS011;62991;50.040;18.400;2023-05-31T03:27:54;14.48;;;4.40;;
74510;SDS011;62991;50.040;18.400;2023-05-31T03:30:57;11.48;;;3.85;;
74510;SDS011;62991;50.040;18.400;2023-05-31T03:33:58;11.10;;;4.43;;
74510;SDS011;62991;50.040;18.400;2023-05-31T03:37:00;10.05;;;3.28;;
74510;SDS011;62991;50.040;18.400;2023-05-31T03:40:02;12.57;;;3.78;;
74510;SDS011;62991;50.040;18.400;2023-05-31T03:43:04;11.70;;;3.60;;
74510;SDS011;62991;50.040;18.400;2023-05-31T03:46:05;14.02;;;4.18;;
74510;SDS011;62991;50.040;18.400;2023-05-31T03:49:05;11.77;;;3.53;;
74510;SDS011;62991;50.040;18.400;2023-05-31T03:52:06;7.63;;;3.00;;
74510;SDS011;62991;50.040;18.400;2023-05-31T03:55:09;9.15;;;3.22;;
74510;SDS011;62991;50.040;18.400;2023-05-31T03:58:09;10.75;;;3.70;;
74510;SDS011;62991;50.040;18.400;2023-05-31T04:01:10;10.35;;;3.92;;
74510;SDS011;62991;50.040;18.400;2023-05-31T04:04:11;9.65;;;3.25;;
74510;SDS011;62991;50.040;18.400;2023-05-31T04:07:12;8.45;;;3.40;;
74510;SDS011;62991;50.040;18.400;2023-05-31T04:10:12;8.00;;;3.40;;
74510;SDS011;62991;50.040;18.400;2023-05-31T04:13:13;10.43;;;3.60;;
74510;SDS011;62991;50.040;18.400;2023-05-31T04:16:14;9.35;;;3.78;;
74510;SDS011;62991;50.040;18.400;2023-05-31T04:19:15;10.57;;;3.38;;
74510;SDS011;62991;50.040;18.400;2023-05-31T04:22:15;9.88;;;3.40;;
74510;SDS011;62991;50.040;18.400;2023-05-31T04:25:16;6.40;;;3.17;;
74510;SDS011;62991;50.040;18.400;2023-05-31T04:28:17;7.25;;;3.53;;
74510;SDS011;62991;50.040;18.400;2023-05-31T04:31:19;12.77;;;3.65;;
74510;SDS011;62991;50.040;18.400;2023-05-31T04:34:24;9.02;;;3.63;;
74510;SDS011;62991;50.040;18.400;2023-05-31T04:37:26;8.35;;;3.50;;
74510;SDS011;62991;50.040;18.400;2023-05-31T04:40:30;14.10;;;4.53;;
74510;SDS011;62991;50.040;18.400;2023-05-31T04:43:31;11.40;;;3.83;;
74510;SDS011;62991;50.040;18.400;2023-05-31T04:46:32;8.60;;;4.00;;
74510;SDS011;62991;50.040;18.400;2023-05-31T04:49:33;7.75;;;3.05;;
74510;SDS011;62991;50.040;18.400;2023-05-31T04:52:33;8.60;;;3.25;;
74510;SDS011;62991;50.040;18.400;2023-05-31T04:55:34;13.48;;;4.03;;
74510;SDS011;62991;50.040;18.400;2023-05-31T04:58:35;7.47;;;3.38;;
74510;SDS011;62991;50.040;18.400;2023-05-31T05:01:35;11.75;;;3.58;;
74510;SDS011;62991;50.040;18.400;2023-05-31T05:04:37;9.63;;;3.40;;
74510;SDS011;62991;50.040;18.400;2023-05-31T05:07:37;7.22;;;2.97;;
74510;SDS011;62991;50.040;18.400;2023-05-31T05:10:38;7.40;;;3.40;;
74510;SDS011;62991;50.040;18.400;2023-05-31T05:13:39;7.68;;;3.10;;
74510;SDS011;62991;50.040;18.400;2023-05-31T05:16:40;11.52;;;3.75;;
74510;SDS011;62991;50.040;18.400;2023-05-31T05:19:40;9.38;;;3.10;;
74510;SDS011;62991;50.040;18.400;2023-05-31T05:22:41;7.95;;;3.25;;
74510;SDS011;62991;50.040;18.400;2023-05-31T05:25:43;11.98;;;3.58;;
74510;SDS011;62991;50.040;18.400;2023-05-31T05:28:43;14.57;;;3.90;;
74510;SDS011;62991;50.040;18.400;2023-05-31T05:31:44;9.88;;;3.50;;
74510;SDS011;62991;50.040;18.400;2023-05-31T05:34:45;6.80;;;3.45;;
74510;SDS011;62991;50.040;18.400;2023-05-31T05:37:46;9.18;;;3.75;;
74510;SDS011;62991;50.040;18.400;2023-05-31T05:40:47;9.77;;;3.80;;
74510;SDS011;62991;50.040;18.400;2023-05-31T05:43:47;10.55;;;4.65;;
74510;SDS011;62991;50.040;18.400;2023-05-31T05:46:48;18.25;;;6.43;;
74510;SDS011;62991;50.040;18.400;2023-05-31T05:49:48;55.80;;;17.75;;
74510;SDS011;62991;50.040;18.400;2023-05-31T05:52:50;33.50;;;13.77;;
74510;SDS011;62991;50.040;18.400;2023-05-31T05:55:51;30.58;;;11.43;;
74510;SDS011;62991;50.040;18.400;2023-05-31T05:58:52;25.88;;;9.13;;
74510;SDS011;62991;50.040;18.400;2023-05-31T06:01:53;14.95;;;4.63;;
74510;SDS011;62991;50.040;18.400;2023-05-31T06:04:53;13.65;;;6.20;;
74510;SDS011;62991;50.040;18.400;2023-05-31T06:07:57;12.63;;;5.28;;
74510;SDS011;62991;50.040;18.400;2023-05-31T06:10:58;8.95;;;3.30;;
74510;SDS011;62991;50.040;18.400;2023-05-31T06:13:58;18.15;;;5.72;;
74510;SDS011;62991;50.040;18.400;2023-05-31T06:16:59;14.40;;;4.63;;
74510;SDS011;62991;50.040;18.400;2023-05-31T06:20:00;10.10;;;3.92;;
74510;SDS011;62991;50.040;18.400;2023-05-31T06:23:03;5.43;;;2.95;;
74510;SDS011;62991;50.040;18.400;2023-05-31T06:26:03;11.20;;;3.50;;
74510;SDS011;62991;50.040;18.400;2023-05-31T06:29:04;12.63;;;3.53;;
74510;SDS011;62991;50.040;18.400;2023-05-31T06:32:05;8.52;;;3.38;;
74510;SDS011;62991;50.040;18.400;2023-05-31T06:35:06;6.75;;;2.92;;
74510;SDS011;62991;50.040;18.400;2023-05-31T06:38:07;8.90;;;3.60;;
74510;SDS011;62991;50.040;18.400;2023-05-31T06:41:13;7.63;;;3.08;;
74510;SDS011;62991;50.040;18.400;2023-05-31T06:44:14;8.45;;;3.38;;
74510;SDS011;62991;50.040;18.400;2023-05-31T06:47:15;4.90;;;2.80;;
74510;SDS011;62991;50.040;18.400;2023-05-31T06:50:16;9.38;;;2.88;;
74510;SDS011;62991;50.040;18.400;2023-05-31T06:53:17;10.05;;;3.03;;
74510;SDS011;62991;50.040;18.400;2023-05-31T06:56:17;9.15;;;2.85;;
74510;SDS011;62991;50.040;18.400;2023-05-31T06:59:18;13.45;;;2.72;;
74510;SDS011;62991;50.040;18.400;2023-05-31T07:02:19;7.75;;;3.85;;
74510;SDS011;62991;50.040;18.400;2023-05-31T07:05:20;10.93;;;3.80;;
74510;SDS011;62991;50.040;18.400;2023-05-31T07:08:20;10.25;;;3.58;;
74510;SDS011;62991;50.040;18.400;2023-05-31T07:11:21;12.32;;;4.00;;
74510;SDS011;62991;50.040;18.400;2023-05-31T07:14:22;8.15;;;2.85;;
74510;SDS011;62991;50.040;18.400;2023-05-31T07:17:23;4.18;;;2.20;;
74510;SDS011;62991;50.040;18.400;2023-05-31T07:20:24;7.22;;;2.47;;
74510;SDS011;62991;50.040;18.400;2023-05-31T07:23:25;9.05;;;3.42;;
74510;SDS011;62991;50.040;18.400;2023-05-31T07:26:26;8.57;;;3.05;;
74510;SDS011;62991;50.040;18.400;2023-05-31T07:29:27;10.13;;;2.95;;
74510;SDS011;62991;50.040;18.400;2023-05-31T07:32:28;9.25;;;3.15;;
74510;SDS011;62991;50.040;18.400;2023-05-31T07:35:28;8.88;;;3.20;;
74510;SDS011;62991;50.040;18.400;2023-05-31T07:38:29;8.15;;;2.55;;
74510;SDS011;62991;50.040;18.400;2023-05-31T07:41:30;20.13;;;3.08;;
74510;SDS011;62991;50.040;18.400;2023-05-31T07:44:31;8.18;;;3.17;;
74510;SDS011;62991;50.040;18.400;2023-05-31T07:47:31;7.05;;;2.80;;
74510;SDS011;62991;50.040;18.400;2023-05-31T07:50:32;6.15;;;2.58;;
74510;SDS011;62991;50.040;18.400;2023-05-31T07:53:33;8.82;;;3.15;;
74510;SDS011;62991;50.040;18.400;2023-05-31T07:56:34;10.55;;;2.60;;
74510;SDS011;62991;50.040;18.400;2023-05-31T07:59:35;5.10;;;2.40;;
74510;SDS011;62991;50.040;18.400;2023-05-31T08:02:36;14.02;;;2.38;;
74510;SDS011;62991;50.040;18.400;2023-05-31T08:05:36;8.00;;;3.00;;
74510;SDS011;62991;50.040;18.400;2023-05-31T08:08:37;5.70;;;2.88;;
74510;SDS011;62991;50.040;18.400;2023-05-31T08:11:38;6.72;;;2.30;;
74510;SDS011;62991;50.040;18.400;2023-05-31T08:14:38;7.32;;;2.15;;
74510;SDS011;62991;50.040;18.400;2023-05-31T08:17:39;9.75;;;2.25;;
74510;SDS011;62991;50.040;18.400;2023-05-31T08:20:41;6.35;;;2.28;;
74510;SDS011;62991;50.040;18.400;2023-05-31T08:23:42;4.03;;;2.03;;
74510;SDS011;62991;50.040;18.400;2023-05-31T08:26:43;3.78;;;1.88;;
74510;SDS011;62991;50.040;18.400;2023-05-31T08:29:44;2.90;;;1.50;;
74510;SDS011;62991;50.040;18.400;2023-05-31T08:32:45;4.25;;;2.03;;
74510;SDS011;62991;50.040;18.400;2023-05-31T08:35:45;6.75;;;1.98;;
74510;SDS011;62991;50.040;18.400;2023-05-31T08:38:46;5.82;;;1.80;;
74510;SDS011;62991;50.040;18.400;2023-05-31T08:45:02;6.63;;;1.83;;
74510;SDS011;62991;50.040;18.400;2023-05-31T08:48:10;6.70;;;1.80;;
74510;SDS011;62991;50.040;18.400;2023-05-31T08:51:11;4.95;;;2.35;;
74510;SDS011;62991;50.040;18.400;2023-05-31T08:54:14;4.10;;;1.70;;
74510;SDS011;62991;50.040;18.400;2023-05-31T08:57:17;5.03;;;1.67;;
74510;SDS011;62991;50.040;18.400;2023-05-31T09:00:19;4.03;;;1.65;;
74510;SDS011;62991;50.040;18.400;2023-05-31T09:03:21;6.80;;;2.00;;
74510;SDS011;62991;50.040;18.400;2023-05-31T09:06:24;4.50;;;1.92;;
74510;SDS011;62991;50.040;18.400;2023-05-31T09:09:25;5.78;;;2.00;;
74510;SDS011;62991;50.040;18.400;2023-05-31T09:12:26;7.10;;;1.75;;
74510;SDS011;62991;50.040;18.400;2023-05-31T09:15:27;10.73;;;2.30;;
74510;SDS011;62991;50.040;18.400;2023-05-31T09:18:35;3.83;;;1.65;;
74510;SDS011;62991;50.040;18.400;2023-05-31T09:21:37;2.55;;;1.38;;
74510;SDS011;62991;50.040;18.400;2023-05-31T09:24:49;5.07;;;1.73;;
74510;SDS011;62991;50.040;18.400;2023-05-31T09:28:00;4.55;;;1.60;;
74510;SDS011;62991;50.040;18.400;2023-05-31T09:31:01;6.88;;;1.80;;
74510;SDS011;62991;50.040;18.400;2023-05-31T09:34:04;7.88;;;2.20;;
74510;SDS011;62991;50.040;18.400;2023-05-31T09:37:04;3.70;;;1.55;;
74510;SDS011;62991;50.040;18.400;2023-05-31T09:40:06;4.97;;;1.67;;
74510;SDS011;62991;50.040;18.400;2023-05-31T09:43:07;2.60;;;1.50;;
74510;SDS011;62991;50.040;18.400;2023-05-31T09:46:17;2.95;;;1.23;;
74510;SDS011;62991;50.040;18.400;2023-05-31T09:49:19;4.00;;;1.40;;
74510;SDS011;62991;50.040;18.400;2023-05-31T09:52:27;4.05;;;1.70;;
74510;SDS011;62991;50.040;18.400;2023-05-31T09:58:40;2.83;;;1.73;;
74510;SDS011;62991;50.040;18.400;2023-05-31T10:01:41;3.35;;;1.63;;
74510;SDS011;62991;50.040;18.400;2023-05-31T10:04:42;5.57;;;1.90;;
74510;SDS011;62991;50.040;18.400;2023-05-31T10:07:45;7.38;;;1.48;;
74510;SDS011;62991;50.040;18.400;2023-05-31T10:10:50;4.93;;;1.50;;
74510;SDS011;62991;50.040;18.400;2023-05-31T10:13:51;7.10;;;1.40;;
74510;SDS011;62991;50.040;18.400;2023-05-31T10:16:58;3.45;;;1.52;;
74510;SDS011;62991;50.040;18.400;2023-05-31T10:20:02;10.73;;;1.83;;
74510;SDS011;62991;50.040;18.400;2023-05-31T10:23:08;5.57;;;2.33;;
74510;SDS011;62991;50.040;18.400;2023-05-31T10:29:18;5.53;;;2.50;;
74510;SDS011;62991;50.040;18.400;2023-05-31T10:32:24;3.88;;;1.70;;
74510;SDS011;62991;50.040;18.400;2023-05-31T10:35:27;4.60;;;1.50;;
74510;SDS011;62991;50.040;18.400;2023-05-31T10:38:42;5.30;;;1.70;;
74510;SDS011;62991;50.040;18.400;2023-05-31T10:42:06;7.55;;;1.88;;
74510;SDS011;62991;50.040;18.400;2023-05-31T10:45:14;10.60;;;2.00;;
74510;SDS011;62991;50.040;18.400;2023-05-31T10:48:30;10.02;;;1.83;;
74510;SDS011;62991;50.040;18.400;2023-05-31T10:51:39;7.15;;;2.13;;
74510;SDS011;62991;50.040;18.400;2023-05-31T10:54:46;8.23;;;2.50;;
74510;SDS011;62991;50.040;18.400;2023-05-31T10:57:54;10.50;;;2.95;;
74510;SDS011;62991;50.040;18.400;2023-05-31T11:00:56;12.55;;;2.97;;
74510;SDS011;62991;50.040;18.400;2023-05-31T11:03:57;4.63;;;1.90;;
74510;SDS011;62991;50.040;18.400;2023-05-31T11:10:24;9.32;;;2.45;;
74510;SDS011;62991;50.040;18.400;2023-05-31T11:13:30;16.20;;;2.75;;
74510;SDS011;62991;50.040;18.400;2023-05-31T11:20:04;11.13;;;2.22;;
74510;SDS011;62991;50.040;18.400;2023-05-31T11:26:27;4.32;;;1.95;;
74510;SDS011;62991;50.040;18.400;2023-05-31T11:35:47;6.47;;;2.13;;
74510;SDS011;62991;50.040;18.400;2023-05-31T11:38:48;6.18;;;1.92;;
74510;SDS011;62991;50.040;18.400;2023-05-31T11:41:49;5.60;;;2.15;;
74510;SDS011;62991;50.040;18.400;2023-05-31T11:44:50;3.42;;;1.80;;
74510;SDS011;62991;50.040;18.400;2023-05-31T11:51:24;3.80;;;1.90;;
74510;SDS011;62991;50.040;18.400;2023-05-31T11:54:25;5.05;;;2.05;;
74510;SDS011;62991;50.040;18.400;2023-05-31T11:57:29;4.30;;;2.67;;
74510;SDS011;62991;50.040;18.400;2023-05-31T12:00:30;6.05;;;1.90;;
74510;SDS011;62991;50.040;18.400;2023-05-31T12:03:31;5.63;;;1.92;;
74510;SDS011;62991;50.040;18.400;2023-05-31T12:06:32;5.25;;;2.10;;
74510;SDS011;62991;50.040;18.400;2023-05-31T12:09:33;8.98;;;2.42;;
74510;SDS011;62991;50.040;18.400;2023-05-31T12:12:35;4.60;;;1.80;;
74510;SDS011;62991;50.040;18.400;2023-05-31T12:15:38;5.28;;;2.03;;
74510;SDS011;62991;50.040;18.400;2023-05-31T12:18:38;4.32;;;1.92;;
74510;SDS011;62991;50.040;18.400;2023-05-31T12:21:39;6.57;;;2.05;;
74510;SDS011;62991;50.040;18.400;2023-05-31T12:24:47;4.22;;;1.80;;
74510;SDS011;62991;50.040;18.400;2023-05-31T12:27:51;8.95;;;1.92;;
74510;SDS011;62991;50.040;18.400;2023-05-31T12:30:52;5.90;;;2.00;;
74510;SDS011;62991;50.040;18.400;2023-05-31T12:37:13;4.05;;;1.60;;
74510;SDS011;62991;50.040;18.400;2023-05-31T12:40:15;6.00;;;2.15;;
74510;SDS011;62991;50.040;18.400;2023-05-31T12:43:19;7.65;;;2.05;;
74510;SDS011;62991;50.040;18.400;2023-05-31T12:46:20;6.60;;;1.83;;
74510;SDS011;62991;50.040;18.400;2023-05-31T12:49:21;4.90;;;2.13;;
74510;SDS011;62991;50.040;18.400;2023-05-31T12:52:27;3.90;;;1.80;;
74510;SDS011;62991;50.040;18.400;2023-05-31T12:55:29;3.17;;;1.60;;
74510;SDS011;62991;50.040;18.400;2023-05-31T12:58:29;4.68;;;1.80;;
74510;SDS011;62991;50.040;18.400;2023-05-31T13:01:30;3.67;;;1.85;;
74510;SDS011;62991;50.040;18.400;2023-05-31T13:04:31;3.28;;;1.73;;
74510;SDS011;62991;50.040;18.400;2023-05-31T13:07:33;3.63;;;1.52;;
74510;SDS011;62991;50.040;18.400;2023-05-31T13:10:35;5.55;;;1.55;;
74510;SDS011;62991;50.040;18.400;2023-05-31T13:13:36;3.60;;;1.75;;
74510;SDS011;62991;50.040;18.400;2023-05-31T13:16:37;5.22;;;1.75;;
74510;SDS011;62991;50.040;18.400;2023-05-31T13:19:38;3.53;;;1.65;;
74510;SDS011;62991;50.040;18.400;2023-05-31T13:22:39;3.50;;;1.58;;
74510;SDS011;62991;50.040;18.400;2023-05-31T13:25:41;3.72;;;1.58;;
74510;SDS011;62991;50.040;18.400;2023-05-31T13:28:42;4.47;;;1.92;;
74510;SDS011;62991;50.040;18.400;2023-05-31T13:31:43;3.97;;;1.70;;
74510;SDS011;62991;50.040;18.400;2023-05-31T13:34:43;5.72;;;1.80;;
74510;SDS011;62991;50.040;18.400;2023-05-31T13:37:44;2.95;;;1.52;;
74510;SDS011;62991;50.040;18.400;2023-05-31T13:40:44;6.60;;;1.98;;
74510;SDS011;62991;50.040;18.400;2023-05-31T13:43:45;6.45;;;1.58;;
74510;SDS011;62991;50.040;18.400;2023-05-31T13:46:46;4.13;;;1.55;;
74510;SDS011;62991;50.040;18.400;2023-05-31T13:49:47;4.85;;;1.70;;
74510;SDS011;62991;50.040;18.400;2023-05-31T13:52:48;3.25;;;1.52;;
74510;SDS011;62991;50.040;18.400;2023-05-31T13:55:49;3.42;;;1.63;;
74510;SDS011;62991;50.040;18.400;2023-05-31T13:58:49;5.25;;;1.60;;
74510;SDS011;62991;50.040;18.400;2023-05-31T14:01:50;7.32;;;1.52;;
74510;SDS011;62991;50.040;18.400;2023-05-31T14:04:51;2.78;;;1.33;;
74510;SDS011;62991;50.040;18.400;2023-05-31T14:07:52;3.63;;;1.40;;
74510;SDS011;62991;50.040;18.400;2023-05-31T14:10:52;3.45;;;1.30;;
74510;SDS011;62991;50.040;18.400;2023-05-31T14:13:53;2.55;;;1.35;;
74510;SDS011;62991;50.040;18.400;2023-05-31T14:16:54;2.47;;;1.23;;
74510;SDS011;62991;50.040;18.400;2023-05-31T14:19:54;2.65;;;1.30;;
74510;SDS011;62991;50.040;18.400;2023-05-31T14:22:55;2.40;;;1.17;;
74510;SDS011;62991;50.040;18.400;2023-05-31T14:25:56;1.48;;;1.10;;
74510;SDS011;62991;50.040;18.400;2023-05-31T14:28:56;2.35;;;1.38;;
74510;SDS011;62991;50.040;18.400;2023-05-31T14:31:57;3.30;;;1.50;;
74510;SDS011;62991;50.040;18.400;2023-05-31T14:34:58;7.25;;;1.65;;
74510;SDS011;62991;50.040;18.400;2023-05-31T14:37:58;3.22;;;1.30;;
74510;SDS011;62991;50.040;18.400;2023-05-31T14:40:59;3.20;;;1.25;;
74510;SDS011;62991;50.040;18.400;2023-05-31T14:44:00;2.28;;;1.05;;
74510;SDS011;62991;50.040;18.400;2023-05-31T14:47:02;3.38;;;1.45;;
74510;SDS011;62991;50.040;18.400;2023-05-31T14:50:03;3.50;;;1.30;;
74510;SDS011;62991;50.040;18.400;2023-05-31T14:53:04;3.28;;;1.30;;
74510;SDS011;62991;50.040;18.400;2023-05-31T14:56:04;2.33;;;1.30;;
74510;SDS011;62991;50.040;18.400;2023-05-31T14:59:05;3.33;;;1.10;;
74510;SDS011;62991;50.040;18.400;2023-05-31T15:02:06;4.45;;;1.45;;
74510;SDS011;62991;50.040;18.400;2023-05-31T15:05:08;3.92;;;1.35;;
74510;SDS011;62991;50.040;18.400;2023-05-31T15:08:09;1.88;;;1.08;;
74510;SDS011;62991;50.040;18.400;2023-05-31T15:11:10;4.70;;;1.25;;
74510;SDS011;62991;50.040;18.400;2023-05-31T15:14:11;3.28;;;1.17;;
74510;SDS011;62991;50.040;18.400;2023-05-31T15:17:13;4.43;;;1.20;;
74510;SDS011;62991;50.040;18.400;2023-05-31T15:20:14;3.28;;;1.77;;
74510;SDS011;62991;50.040;18.400;2023-05-31T15:23:15;2.28;;;1.20;;
74510;SDS011;62991;50.040;18.400;2023-05-31T15:26:17;2.00;;;1.17;;
74510;SDS011;62991;50.040;18.400;2023-05-31T15:29:19;2.45;;;1.10;;
74510;SDS011;62991;50.040;18.400;2023-05-31T15:32:19;3.30;;;1.20;;
74510;SDS011;62991;50.040;18.400;2023-05-31T15:35:20;2.63;;;1.25;;
74510;SDS011;62991;50.040;18.400;2023-05-31T15:38:21;4.75;;;1.30;;
74510;SDS011;62991;50.040;18.400;2023-05-31T15:41:22;2.83;;;1.38;;
74510;SDS011;62991;50.040;18.400;2023-05-31T15:44:22;2.72;;;1.30;;
74510;SDS011;62991;50.040;18.400;2023-05-31T15:47:23;2.50;;;1.33;;
74510;SDS011;62991;50.040;18.400;2023-05-31T15:50:24;2.33;;;1.60;;
74510;SDS011;62991;50.040;18.400;2023-05-31T15:53:25;2.63;;;1.38;;
74510;SDS011;62991;50.040;18.400;2023-05-31T15:56:26;2.10;;;0.95;;
74510;SDS011;62991;50.040;18.400;2023-05-31T15:59:26;3.08;;;1.55;;
74510;SDS011;62991;50.040;18.400;2023-05-31T16:02:27;6.35;;;1.63;;
74510;SDS011;62991;50.040;18.400;2023-05-31T16:05:28;4.00;;;1.30;;
74510;SDS011;62991;50.040;18.400;2023-05-31T16:08:29;5.28;;;1.20;;
74510;SDS011;62991;50.040;18.400;2023-05-31T16:11:30;2.75;;;1.05;;
74510;SDS011;62991;50.040;18.400;2023-05-31T16:14:32;2.90;;;1.08;;
74510;SDS011;62991;50.040;18.400;2023-05-31T16:17:33;2.20;;;1.10;;
74510;SDS011;62991;50.040;18.400;2023-05-31T16:20:34;2.28;;;1.33;;
74510;SDS011;62991;50.040;18.400;2023-05-31T16:23:35;7.78;;;1.85;;
74510;SDS011;62991;50.040;18.400;2023-05-31T16:26:35;1.73;;;1.13;;
74510;SDS011;62991;50.040;18.400;2023-05-31T16:29:36;3.85;;;1.20;;
74510;SDS011;62991;50.040;18.400;2023-05-31T16:32:37;3.65;;;1.83;;
74510;SDS011;62991;50.040;18.400;2023-05-31T16:35:37;4.32;;;1.40;;
74510;SDS011;62991;50.040;18.400;2023-05-31T16:38:38;5.07;;;1.75;;
74510;SDS011;62991;50.040;18.400;2023-05-31T16:41:39;2.50;;;1.20;;
74510;SDS011;62991;50.040;18.400;2023-05-31T16:44:39;2.40;;;1.20;;
74510;SDS011;62991;50.040;18.400;2023-05-31T16:47:43;2.65;;;1.30;;
74510;SDS011;62991;50.040;18.400;2023-05-31T16:50:43;2.80;;;1.50;;
74510;SDS011;62991;50.040;18.400;2023-05-31T16:53:44;1.70;;;1.17;;
74510;SDS011;62991;50.040;18.400;2023-05-31T16:56:45;2.65;;;1.48;;
74510;SDS011;62991;50.040;18.400;2023-05-31T16:59:45;4.43;;;1.50;;
74510;SDS011;62991;50.040;18.400;2023-05-31T17:02:46;6.57;;;1.92;;
74510;SDS011;62991;50.040;18.400;2023-05-31T17:05:47;4.80;;;1.73;;
74510;SDS011;62991;50.040;18.400;2023-05-31T17:08:48;4.50;;;1.58;;
74510;SDS011;62991;50.040;18.400;2023-05-31T17:11:49;3.45;;;1.23;;
74510;SDS011;62991;50.040;18.400;2023-05-31T17:14:51;3.60;;;1.52;;
74510;SDS011;62991;50.040;18.400;2023-05-31T17:17:52;3.63;;;1.30;;
74510;SDS011;62991;50.040;18.400;2023-05-31T17:20:53;3.97;;;1.70;;
74510;SDS011;62991;50.040;18.400;2023-05-31T17:23:53;4.90;;;1.52;;
74510;SDS011;62991;50.040;18.400;2023-05-31T17:26:54;3.38;;;1.60;;
74510;SDS011;62991;50.040;18.400;2023-05-31T17:30:05;6.22;;;1.50;;
74510;SDS011;62991;50.040;18.400;2023-05-31T17:33:06;4.07;;;1.60;;
74510;SDS011;62991;50.040;18.400;2023-05-31T17:36:07;4.35;;;1.60;;
74510;SDS011;62991;50.040;18.400;2023-05-31T17:39:08;4.03;;;1.88;;
74510;SDS011;62991;50.040;18.400;2023-05-31T17:42:10;3.17;;;1.42;;
74510;SDS011;62991;50.040;18.400;2023-05-31T17:45:11;4.22;;;1.65;;
74510;SDS011;62991;50.040;18.400;2023-05-31T17:48:12;5.35;;;1.58;;
74510;SDS011;62991;50.040;18.400;2023-05-31T17:51:12;4.38;;;1.73;;
74510;SDS011;62991;50.040;18.400;2023-05-31T17:54:13;4.97;;;1.85;;
74510;SDS011;62991;50.040;18.400;2023-05-31T17:57:14;3.17;;;1.70;;
74510;SDS011;62991;50.040;18.400;2023-05-31T18:00:15;3.00;;;1.90;;
74510;SDS011;62991;50.040;18.400;2023-05-31T18:03:16;3.63;;;1.70;;
74510;SDS011;62991;50.040;18.400;2023-05-31T18:06:16;3.55;;;1.70;;
74510;SDS011;62991;50.040;18.400;2023-05-31T18:09:17;5.00;;;1.90;;
74510;SDS011;62991;50.040;18.400;2023-05-31T18:12:18;4.75;;;1.92;;
74510;SDS011;62991;50.040;18.400;2023-05-31T18:15:18;3.58;;;1.85;;
74510;SDS011;62991;50.040;18.400;2023-05-31T18:18:19;4.68;;;1.98;;
74510;SDS011;62991;50.040;18.400;2023-05-31T18:21:21;8.25;;;2.45;;
74510;SDS011;62991;50.040;18.400;2023-05-31T18:24:22;7.65;;;2.83;;
74510;SDS011;62991;50.040;18.400;2023-05-31T18:27:22;6.38;;;2.72;;
74510;SDS011;62991;50.040;18.400;2023-05-31T18:30:23;5.55;;;2.00;;
74510;SDS011;62991;50.040;18.400;2023-05-31T18:33:24;3.95;;;1.77;;
74510;SDS011;62991;50.040;18.400;2023-05-31T18:36:26;4.57;;;1.92;;